sensor_id;sensor_type;location;lat;lon;timestamp;P1;durP1;ratioP1;P2;durP2;ratioP2
7013;SDS011;3547;50.774;12.918;2023-03-01T00:01:03;10.93;;;8.70;;
7013;SDS011;3547;50.774;12.918;2023-03-01T00:03:31;16.20;;;10.67;;
7013;SDS011;3547;50.774;12.918;2023-03-01T00:09:21;22.43;;;12.13;;
7013;SDS011;3547;50.774;12.918;2023-03-01T00:11:47;16.33;;;10.37;;
7013;SDS011;3547;50.774;12.918;2023-03-01T00:14:14;13.17;;;8.23;;
7013;SDS011;3547;50.774;12.918;2023-03-01T00:16:42;10.93;;;7.57;;
7013;SDS011;3547;50.774;12.918;2023-03-01T00:19:12;12.23;;;7.57;;
7013;SDS011;3547;50.774;12.918;2023-03-01T00:21:39;11.17;;;7.90;;
7013;SDS011;3547;50.774;12.918;2023-03-01T00:24:05;12.87;;;8.17;;
7013;SDS011;3547;50.774;12.918;2023-03-01T00:26:32;12.77;;;7.83;;
7013;SDS011;3547;50.774;12.918;2023-03-01T00:28:58;14.43;;;8.93;;
7013;SDS011;3547;50.774;12.918;2023-03-01T00:31:25;12.03;;;8.20;;
7013;SDS011;3547;50.774;12.918;2023-03-01T00:33:55;14.13;;;7.80;;
7013;SDS011;3547;50.774;12.918;2023-03-01T00:36:24;11.90;;;7.60;;
7013;SDS011;3547;50.774;12.918;2023-03-01T00:38:52;11.73;;;7.13;;
7013;SDS011;3547;50.774;12.918;2023-03-01T00:41:19;11.30;;;7.53;;
7013;SDS011;3547;50.774;12.918;2023-03-01T00:43:48;13.97;;;8.87;;
7013;SDS011;3547;50.774;12.918;2023-03-01T00:46:16;13.97;;;8.97;;
7013;SDS011;3547;50.774;12.918;2023-03-01T00:48:44;12.50;;;8.40;;
7013;SDS011;3547;50.774;12.918;2023-03-01T00:51:12;16.23;;;9.13;;
7013;SDS011;3547;50.774;12.918;2023-03-01T00:53:38;14.33;;;9.87;;
7013;SDS011;3547;50.774;12.918;2023-03-01T00:56:06;16.17;;;9.53;;
7013;SDS011;3547;50.774;12.918;2023-03-01T00:58:33;11.90;;;8.77;;
7013;SDS011;3547;50.774;12.918;2023-03-01T01:01:00;15.13;;;9.20;;
7013;SDS011;3547;50.774;12.918;2023-03-01T01:03:32;13.90;;;9.83;;
7013;SDS011;3547;50.774;12.918;2023-03-01T01:05:58;16.97;;;10.43;;
7013;SDS011;3547;50.774;12.918;2023-03-01T01:08:34;15.73;;;9.97;;
7013;SDS011;3547;50.774;12.918;2023-03-01T01:11:00;14.40;;;9.93;;
7013;SDS011;3547;50.774;12.918;2023-03-01T01:13:26;11.10;;;7.97;;
7013;SDS011;3547;50.774;12.918;2023-03-01T01:15:53;13.53;;;8.27;;
7013;SDS011;3547;50.774;12.918;2023-03-01T01:18:19;14.73;;;8.40;;
7013;SDS011;3547;50.774;12.918;2023-03-01T01:20:45;13.53;;;8.27;;
7013;SDS011;3547;50.774;12.918;2023-03-01T01:23:11;13.87;;;8.07;;
7013;SDS011;3547;50.774;12.918;2023-03-01T01:25:37;12.80;;;8.30;;
7013;SDS011;3547;50.774;12.918;2023-03-01T01:28:03;13.10;;;8.57;;
7013;SDS011;3547;50.774;12.918;2023-03-01T01:30:29;12.63;;;8.33;;
7013;SDS011;3547;50.774;12.918;2023-03-01T01:32:55;15.93;;;8.67;;
7013;SDS011;3547;50.774;12.918;2023-03-01T01:38:44;13.80;;;8.93;;
7013;SDS011;3547;50.774;12.918;2023-03-01T01:41:11;13.93;;;9.53;;
7013;SDS011;3547;50.774;12.918;2023-03-01T01:43:45;13.43;;;9.00;;
7013;SDS011;3547;50.774;12.918;2023-03-01T01:46:24;15.00;;;8.50;;
7013;SDS011;3547;50.774;12.918;2023-03-01T01:48:57;13.17;;;8.20;;
7013;SDS011;3547;50.774;12.918;2023-03-01T01:51:25;11.77;;;8.10;;
7013;SDS011;3547;50.774;12.918;2023-03-01T01:53:56;12.97;;;8.43;;
7013;SDS011;3547;50.774;12.918;2023-03-01T01:56:25;16.40;;;9.10;;
7013;SDS011;3547;50.774;12.918;2023-03-01T01:58:54;13.87;;;8.77;;
7013;SDS011;3547;50.774;12.918;2023-03-01T02:01:21;12.23;;;8.17;;
7013;SDS011;3547;50.774;12.918;2023-03-01T02:03:47;14.60;;;9.00;;
7013;SDS011;3547;50.774;12.918;2023-03-01T02:06:28;14.87;;;7.97;;
7013;SDS011;3547;50.774;12.918;2023-03-01T02:09:02;12.70;;;8.90;;
7013;SDS011;3547;50.774;12.918;2023-03-01T02:11:36;12.43;;;8.70;;
7013;SDS011;3547;50.774;12.918;2023-03-01T02:14:03;14.17;;;8.90;;
7013;SDS011;3547;50.774;12.918;2023-03-01T02:16:30;12.97;;;8.63;;
7013;SDS011;3547;50.774;12.918;2023-03-01T02:18:57;14.47;;;8.80;;
7013;SDS011;3547;50.774;12.918;2023-03-01T02:27:03;13.87;;;8.97;;
7013;SDS011;3547;50.774;12.918;2023-03-01T02:29:29;12.50;;;8.40;;
7013;SDS011;3547;50.774;12.918;2023-03-01T02:31:56;10.87;;;7.90;;
7013;SDS011;3547;50.774;12.918;2023-03-01T02:34:25;13.53;;;8.73;;
7013;SDS011;3547;50.774;12.918;2023-03-01T02:36:54;13.33;;;8.53;;
7013;SDS011;3547;50.774;12.918;2023-03-01T02:39:31;12.90;;;8.27;;
7013;SDS011;3547;50.774;12.918;2023-03-01T02:42:02;11.33;;;8.40;;
7013;SDS011;3547;50.774;12.918;2023-03-01T02:44:29;13.47;;;7.53;;
7013;SDS011;3547;50.774;12.918;2023-03-01T02:46:56;13.17;;;8.63;;
7013;SDS011;3547;50.774;12.918;2023-03-01T02:49:27;12.63;;;8.10;;
7013;SDS011;3547;50.774;12.918;2023-03-01T02:55:11;12.10;;;7.90;;
7013;SDS011;3547;50.774;12.918;2023-03-01T02:57:40;14.60;;;8.60;;
7013;SDS011;3547;50.774;12.918;2023-03-01T03:00:12;9.80;;;6.80;;
7013;SDS011;3547;50.774;12.918;2023-03-01T03:02:45;15.27;;;9.40;;
7013;SDS011;3547;50.774;12.918;2023-03-01T03:05:20;16.20;;;8.63;;
7013;SDS011;3547;50.774;12.918;2023-03-01T03:07:49;15.17;;;10.07;;
7013;SDS011;3547;50.774;12.918;2023-03-01T03:10:20;14.20;;;9.10;;
7013;SDS011;3547;50.774;12.918;2023-03-01T03:12:54;14.87;;;9.10;;
7013;SDS011;3547;50.774;12.918;2023-03-01T03:15:22;10.63;;;6.90;;
7013;SDS011;3547;50.774;12.918;2023-03-01T03:17:49;15.90;;;9.03;;
7013;SDS011;3547;50.774;12.918;2023-03-01T03:20:17;13.70;;;8.57;;
7013;SDS011;3547;50.774;12.918;2023-03-01T03:22:46;14.07;;;8.80;;
7013;SDS011;3547;50.774;12.918;2023-03-01T03:25:14;17.07;;;9.87;;
7013;SDS011;3547;50.774;12.918;2023-03-01T03:27:42;14.23;;;9.63;;
7013;SDS011;3547;50.774;12.918;2023-03-01T03:30:10;15.87;;;8.90;;
7013;SDS011;3547;50.774;12.918;2023-03-01T03:32:39;13.87;;;9.07;;
7013;SDS011;3547;50.774;12.918;2023-03-01T03:35:08;13.33;;;8.83;;
7013;SDS011;3547;50.774;12.918;2023-03-01T03:37:36;16.53;;;9.53;;
7013;SDS011;3547;50.774;12.918;2023-03-01T03:40:21;14.57;;;9.47;;
7013;SDS011;3547;50.774;12.918;2023-03-01T03:42:47;15.10;;;9.60;;
7013;SDS011;3547;50.774;12.918;2023-03-01T03:45:14;12.97;;;8.70;;
7013;SDS011;3547;50.774;12.918;2023-03-01T03:47:41;12.03;;;7.67;;
7013;SDS011;3547;50.774;12.918;2023-03-01T03:50:08;13.37;;;8.20;;
7013;SDS011;3547;50.774;12.918;2023-03-01T03:52:36;13.83;;;9.20;;
7013;SDS011;3547;50.774;12.918;2023-03-01T03:55:02;15.27;;;9.13;;
7013;SDS011;3547;50.774;12.918;2023-03-01T03:57:29;15.10;;;8.70;;
7013;SDS011;3547;50.774;12.918;2023-03-01T03:59:55;14.43;;;8.83;;
7013;SDS011;3547;50.774;12.918;2023-03-01T04:02:21;14.77;;;8.33;;
7013;SDS011;3547;50.774;12.918;2023-03-01T04:04:48;13.07;;;8.67;;
7013;SDS011;3547;50.774;12.918;2023-03-01T04:07:16;12.83;;;7.97;;
7013;SDS011;3547;50.774;12.918;2023-03-01T04:09:43;14.37;;;8.77;;
7013;SDS011;3547;50.774;12.918;2023-03-01T04:12:09;14.10;;;8.00;;
7013;SDS011;3547;50.774;12.918;2023-03-01T04:14:36;13.83;;;8.40;;
7013;SDS011;3547;50.774;12.918;2023-03-01T04:17:02;13.50;;;8.57;;
7013;SDS011;3547;50.774;12.918;2023-03-01T04:19:31;14.57;;;9.70;;
7013;SDS011;3547;50.774;12.918;2023-03-01T04:22:02;13.93;;;8.60;;
7013;SDS011;3547;50.774;12.918;2023-03-01T04:24:35;14.83;;;9.20;;
7013;SDS011;3547;50.774;12.918;2023-03-01T04:27:01;13.67;;;8.87;;
7013;SDS011;3547;50.774;12.918;2023-03-01T04:29:28;15.10;;;8.77;;
7013;SDS011;3547;50.774;12.918;2023-03-01T04:31:54;18.63;;;9.27;;
7013;SDS011;3547;50.774;12.918;2023-03-01T04:34:20;13.60;;;8.10;;
7013;SDS011;3547;50.774;12.918;2023-03-01T04:36:49;12.57;;;8.63;;
7013;SDS011;3547;50.774;12.918;2023-03-01T04:43:04;12.07;;;7.60;;
7013;SDS011;3547;50.774;12.918;2023-03-01T04:48:54;14.67;;;8.57;;
7013;SDS011;3547;50.774;12.918;2023-03-01T04:51:21;14.27;;;8.50;;
7013;SDS011;3547;50.774;12.918;2023-03-01T04:53:47;14.63;;;8.40;;
7013;SDS011;3547;50.774;12.918;2023-03-01T04:56:13;11.57;;;7.93;;
7013;SDS011;3547;50.774;12.918;2023-03-01T04:58:40;11.73;;;8.10;;
7013;SDS011;3547;50.774;12.918;2023-03-01T05:01:08;12.67;;;8.27;;
7013;SDS011;3547;50.774;12.918;2023-03-01T05:03:49;12.70;;;8.30;;
7013;SDS011;3547;50.774;12.918;2023-03-01T05:06:16;13.07;;;8.80;;
7013;SDS011;3547;50.774;12.918;2023-03-01T05:08:43;12.63;;;8.47;;
7013;SDS011;3547;50.774;12.918;2023-03-01T05:11:10;14.90;;;8.47;;
7013;SDS011;3547;50.774;12.918;2023-03-01T05:13:37;12.00;;;8.03;;
7013;SDS011;3547;50.774;12.918;2023-03-01T05:16:05;14.33;;;8.83;;
7013;SDS011;3547;50.774;12.918;2023-03-01T05:18:35;15.20;;;9.60;;
7013;SDS011;3547;50.774;12.918;2023-03-01T05:21:02;17.57;;;10.23;;
7013;SDS011;3547;50.774;12.918;2023-03-01T05:23:33;13.73;;;9.13;;
7013;SDS011;3547;50.774;12.918;2023-03-01T05:26:00;16.93;;;10.03;;
7013;SDS011;3547;50.774;12.918;2023-03-01T05:28:29;14.33;;;9.30;;
7013;SDS011;3547;50.774;12.918;2023-03-01T05:30:56;15.73;;;9.67;;
7013;SDS011;3547;50.774;12.918;2023-03-01T05:33:23;16.47;;;9.23;;
7013;SDS011;3547;50.774;12.918;2023-03-01T05:35:50;11.63;;;8.33;;
7013;SDS011;3547;50.774;12.918;2023-03-01T05:38:19;16.00;;;8.37;;
7013;SDS011;3547;50.774;12.918;2023-03-01T05:40:46;12.80;;;8.63;;
7013;SDS011;3547;50.774;12.918;2023-03-01T05:43:14;15.90;;;9.47;;
7013;SDS011;3547;50.774;12.918;2023-03-01T05:45:41;14.17;;;8.87;;
7013;SDS011;3547;50.774;12.918;2023-03-01T05:48:08;18.37;;;9.53;;
7013;SDS011;3547;50.774;12.918;2023-03-01T05:50:36;14.33;;;8.30;;
7013;SDS011;3547;50.774;12.918;2023-03-01T05:53:15;15.23;;;8.87;;
7013;SDS011;3547;50.774;12.918;2023-03-01T05:55:43;16.60;;;9.00;;
7013;SDS011;3547;50.774;12.918;2023-03-01T05:58:10;14.63;;;9.73;;
7013;SDS011;3547;50.774;12.918;2023-03-01T06:00:39;16.23;;;9.57;;
7013;SDS011;3547;50.774;12.918;2023-03-01T06:03:06;17.70;;;9.70;;
7013;SDS011;3547;50.774;12.918;2023-03-01T06:05:34;16.13;;;9.07;;
7013;SDS011;3547;50.774;12.918;2023-03-01T06:08:01;18.97;;;10.50;;
7013;SDS011;3547;50.774;12.918;2023-03-01T06:10:28;18.67;;;9.73;;
7013;SDS011;3547;50.774;12.918;2023-03-01T06:12:54;15.57;;;9.50;;
7013;SDS011;3547;50.774;12.918;2023-03-01T06:15:21;15.80;;;10.13;;
7013;SDS011;3547;50.774;12.918;2023-03-01T06:17:48;16.00;;;9.47;;
7013;SDS011;3547;50.774;12.918;2023-03-01T06:20:24;19.27;;;10.77;;
7013;SDS011;3547;50.774;12.918;2023-03-01T06:22:51;19.10;;;10.63;;
7013;SDS011;3547;50.774;12.918;2023-03-01T06:25:18;18.23;;;9.90;;
7013;SDS011;3547;50.774;12.918;2023-03-01T06:27:47;17.50;;;11.17;;
7013;SDS011;3547;50.774;12.918;2023-03-01T06:30:15;14.10;;;9.13;;
7013;SDS011;3547;50.774;12.918;2023-03-01T06:32:42;18.97;;;10.07;;
7013;SDS011;3547;50.774;12.918;2023-03-01T06:35:09;15.27;;;9.33;;
7013;SDS011;3547;50.774;12.918;2023-03-01T06:37:37;20.03;;;11.10;;
7013;SDS011;3547;50.774;12.918;2023-03-01T06:40:04;18.27;;;10.37;;
7013;SDS011;3547;50.774;12.918;2023-03-01T06:42:37;16.90;;;10.30;;
7013;SDS011;3547;50.774;12.918;2023-03-01T06:45:05;14.90;;;9.67;;
7013;SDS011;3547;50.774;12.918;2023-03-01T06:47:32;20.47;;;11.93;;
7013;SDS011;3547;50.774;12.918;2023-03-01T06:49:59;17.33;;;10.73;;
7013;SDS011;3547;50.774;12.918;2023-03-01T06:52:25;19.20;;;12.03;;
7013;SDS011;3547;50.774;12.918;2023-03-01T06:54:52;18.73;;;11.70;;
7013;SDS011;3547;50.774;12.918;2023-03-01T06:57:18;17.10;;;11.20;;
7013;SDS011;3547;50.774;12.918;2023-03-01T06:59:44;16.57;;;10.97;;
7013;SDS011;3547;50.774;12.918;2023-03-01T07:02:11;19.30;;;11.30;;
7013;SDS011;3547;50.774;12.918;2023-03-01T07:04:38;19.33;;;10.80;;
7013;SDS011;3547;50.774;12.918;2023-03-01T07:07:05;20.40;;;11.80;;
7013;SDS011;3547;50.774;12.918;2023-03-01T07:09:31;18.77;;;10.17;;
7013;SDS011;3547;50.774;12.918;2023-03-01T07:11:57;20.23;;;11.70;;
7013;SDS011;3547;50.774;12.918;2023-03-01T07:14:24;17.03;;;10.70;;
7013;SDS011;3547;50.774;12.918;2023-03-01T07:16:51;20.03;;;11.23;;
7013;SDS011;3547;50.774;12.918;2023-03-01T07:19:18;19.60;;;11.93;;
7013;SDS011;3547;50.774;12.918;2023-03-01T07:21:45;18.83;;;12.50;;
7013;SDS011;3547;50.774;12.918;2023-03-01T07:24:12;22.70;;;12.27;;
7013;SDS011;3547;50.774;12.918;2023-03-01T07:26:38;20.40;;;11.33;;
7013;SDS011;3547;50.774;12.918;2023-03-01T07:29:05;17.30;;;10.33;;
7013;SDS011;3547;50.774;12.918;2023-03-01T07:31:32;19.07;;;10.93;;
7013;SDS011;3547;50.774;12.918;2023-03-01T07:33:59;22.57;;;11.90;;
7013;SDS011;3547;50.774;12.918;2023-03-01T07:36:25;17.40;;;10.70;;
7013;SDS011;3547;50.774;12.918;2023-03-01T07:38:51;19.43;;;10.40;;
7013;SDS011;3547;50.774;12.918;2023-03-01T07:41:18;19.70;;;11.13;;
7013;SDS011;3547;50.774;12.918;2023-03-01T07:43:44;16.33;;;10.43;;
7013;SDS011;3547;50.774;12.918;2023-03-01T07:46:10;21.80;;;11.33;;
7013;SDS011;3547;50.774;12.918;2023-03-01T07:48:36;19.33;;;10.83;;
7013;SDS011;3547;50.774;12.918;2023-03-01T07:51:03;17.50;;;11.03;;
7013;SDS011;3547;50.774;12.918;2023-03-01T07:53:31;19.43;;;11.67;;
7013;SDS011;3547;50.774;12.918;2023-03-01T07:58:40;17.63;;;10.17;;
7013;SDS011;3547;50.774;12.918;2023-03-01T08:01:08;17.90;;;10.67;;
7013;SDS011;3547;50.774;12.918;2023-03-01T08:03:37;16.33;;;10.23;;
7013;SDS011;3547;50.774;12.918;2023-03-01T08:06:04;16.17;;;10.63;;
7013;SDS011;3547;50.774;12.918;2023-03-01T08:08:32;18.37;;;10.47;;
7013;SDS011;3547;50.774;12.918;2023-03-01T08:11:00;18.73;;;9.80;;
7013;SDS011;3547;50.774;12.918;2023-03-01T08:13:28;18.10;;;10.23;;
7013;SDS011;3547;50.774;12.918;2023-03-01T08:16:02;17.03;;;10.97;;
7013;SDS011;3547;50.774;12.918;2023-03-01T08:18:30;17.43;;;10.10;;
7013;SDS011;3547;50.774;12.918;2023-03-01T08:21:07;17.67;;;10.53;;
7013;SDS011;3547;50.774;12.918;2023-03-01T08:23:35;15.90;;;9.73;;
7013;SDS011;3547;50.774;12.918;2023-03-01T08:26:08;16.30;;;10.03;;
7013;SDS011;3547;50.774;12.918;2023-03-01T08:28:42;17.73;;;10.37;;
7013;SDS011;3547;50.774;12.918;2023-03-01T08:33:49;14.33;;;9.10;;
7013;SDS011;3547;50.774;12.918;2023-03-01T08:36:21;17.03;;;9.77;;
7013;SDS011;3547;50.774;12.918;2023-03-01T08:38:51;15.77;;;9.60;;
7013;SDS011;3547;50.774;12.918;2023-03-01T08:41:18;17.43;;;10.17;;
7013;SDS011;3547;50.774;12.918;2023-03-01T08:43:44;16.63;;;10.13;;
7013;SDS011;3547;50.774;12.918;2023-03-01T08:46:10;18.00;;;9.67;;
7013;SDS011;3547;50.774;12.918;2023-03-01T08:48:37;18.93;;;10.97;;
7013;SDS011;3547;50.774;12.918;2023-03-01T08:51:10;15.50;;;9.77;;
7013;SDS011;3547;50.774;12.918;2023-03-01T08:53:43;15.43;;;9.37;;
7013;SDS011;3547;50.774;12.918;2023-03-01T08:56:10;15.37;;;9.70;;
7013;SDS011;3547;50.774;12.918;2023-03-01T08:58:37;16.57;;;9.93;;
7013;SDS011;3547;50.774;12.918;2023-03-01T09:01:08;17.10;;;9.67;;
7013;SDS011;3547;50.774;12.918;2023-03-01T09:03:35;17.53;;;10.63;;
7013;SDS011;3547;50.774;12.918;2023-03-01T09:06:02;18.93;;;10.33;;
7013;SDS011;3547;50.774;12.918;2023-03-01T09:08:29;18.10;;;10.53;;
7013;SDS011;3547;50.774;12.918;2023-03-01T09:10:56;13.10;;;9.63;;
7013;SDS011;3547;50.774;12.918;2023-03-01T09:13:22;17.77;;;10.50;;
7013;SDS011;3547;50.774;12.918;2023-03-01T09:15:52;16.10;;;10.10;;
7013;SDS011;3547;50.774;12.918;2023-03-01T09:18:18;16.30;;;10.73;;
7013;SDS011;3547;50.774;12.918;2023-03-01T09:20:45;21.07;;;10.37;;
7013;SDS011;3547;50.774;12.918;2023-03-01T09:23:11;16.43;;;10.03;;
7013;SDS011;3547;50.774;12.918;2023-03-01T09:28:59;19.13;;;10.33;;
7013;SDS011;3547;50.774;12.918;2023-03-01T09:31:26;17.47;;;10.90;;
7013;SDS011;3547;50.774;12.918;2023-03-01T09:33:52;21.87;;;10.60;;
7013;SDS011;3547;50.774;12.918;2023-03-01T09:36:21;16.17;;;10.03;;
7013;SDS011;3547;50.774;12.918;2023-03-01T09:38:48;19.27;;;10.47;;
7013;SDS011;3547;50.774;12.918;2023-03-01T09:43:51;15.80;;;10.10;;
7013;SDS011;3547;50.774;12.918;2023-03-01T09:46:20;19.93;;;10.13;;
7013;SDS011;3547;50.774;12.918;2023-03-01T09:48:52;18.40;;;10.57;;
7013;SDS011;3547;50.774;12.918;2023-03-01T09:51:25;18.70;;;11.63;;
7013;SDS011;3547;50.774;12.918;2023-03-01T09:53:55;15.17;;;10.23;;
7013;SDS011;3547;50.774;12.918;2023-03-01T10:01:30;10.03;;;6.87;;
7013;SDS011;3547;50.774;12.918;2023-03-01T10:09:35;9.67;;;6.83;;
7013;SDS011;3547;50.774;12.918;2023-03-01T10:12:10;11.33;;;7.27;;
7013;SDS011;3547;50.774;12.918;2023-03-01T10:14:57;12.30;;;7.17;;
7013;SDS011;3547;50.774;12.918;2023-03-01T10:17:46;9.93;;;6.67;;
7013;SDS011;3547;50.774;12.918;2023-03-01T10:20:22;10.93;;;7.20;;
7013;SDS011;3547;50.774;12.918;2023-03-01T10:22:50;11.93;;;7.07;;
7013;SDS011;3547;50.774;12.918;2023-03-01T10:31:26;12.17;;;7.63;;
7013;SDS011;3547;50.774;12.918;2023-03-01T10:34:04;15.00;;;7.97;;
7013;SDS011;3547;50.774;12.918;2023-03-01T10:36:35;11.17;;;7.60;;
7013;SDS011;3547;50.774;12.918;2023-03-01T10:39:05;11.83;;;7.47;;
7013;SDS011;3547;50.774;12.918;2023-03-01T10:42:04;11.57;;;6.47;;
7013;SDS011;3547;50.774;12.918;2023-03-01T10:44:40;10.27;;;6.97;;
7013;SDS011;3547;50.774;12.918;2023-03-01T10:47:19;14.17;;;7.63;;
7013;SDS011;3547;50.774;12.918;2023-03-01T10:50:05;13.40;;;7.67;;
7013;SDS011;3547;50.774;12.918;2023-03-01T10:52:42;9.80;;;7.03;;
7013;SDS011;3547;50.774;12.918;2023-03-01T10:58:59;13.03;;;7.27;;
7013;SDS011;3547;50.774;12.918;2023-03-01T11:01:31;13.07;;;8.07;;
7013;SDS011;3547;50.774;12.918;2023-03-01T11:06:32;10.57;;;7.23;;
7013;SDS011;3547;50.774;12.918;2023-03-01T11:09:36;13.30;;;7.07;;
7013;SDS011;3547;50.774;12.918;2023-03-01T11:12:04;13.50;;;7.50;;
7013;SDS011;3547;50.774;12.918;2023-03-01T11:14:45;13.63;;;6.83;;
7013;SDS011;3547;50.774;12.918;2023-03-01T11:17:37;8.13;;;5.83;;
7013;SDS011;3547;50.774;12.918;2023-03-01T11:22:42;8.77;;;7.27;;
7013;SDS011;3547;50.774;12.918;2023-03-01T11:25:15;14.30;;;7.03;;
7013;SDS011;3547;50.774;12.918;2023-03-01T11:27:45;13.67;;;7.30;;
7013;SDS011;3547;50.774;12.918;2023-03-01T11:30:18;11.20;;;7.10;;
7013;SDS011;3547;50.774;12.918;2023-03-01T11:32:47;12.57;;;6.80;;
7013;SDS011;3547;50.774;12.918;2023-03-01T11:35:28;10.17;;;6.43;;
7013;SDS011;3547;50.774;12.918;2023-03-01T11:37:58;9.93;;;6.33;;
7013;SDS011;3547;50.774;12.918;2023-03-01T11:40:41;11.77;;;7.13;;
7013;SDS011;3547;50.774;12.918;2023-03-01T11:48:55;13.37;;;7.20;;
7013;SDS011;3547;50.774;12.918;2023-03-01T12:21:51;16.47;;;9.40;;
7013;SDS011;3547;50.774;12.918;2023-03-01T12:35:39;11.63;;;7.83;;
7013;SDS011;3547;50.774;12.918;2023-03-01T12:38:42;13.70;;;8.90;;
7013;SDS011;3547;50.774;12.918;2023-03-01T12:43:55;14.60;;;8.60;;
7013;SDS011;3547;50.774;12.918;2023-03-01T12:46:36;13.90;;;8.77;;
7013;SDS011;3547;50.774;12.918;2023-03-01T12:49:26;19.90;;;9.10;;
7013;SDS011;3547;50.774;12.918;2023-03-01T12:52:16;15.10;;;8.60;;
7013;SDS011;3547;50.774;12.918;2023-03-01T12:54:50;12.63;;;9.10;;
7013;SDS011;3547;50.774;12.918;2023-03-01T12:57:29;14.37;;;8.60;;
7013;SDS011;3547;50.774;12.918;2023-03-01T13:00:17;16.27;;;9.80;;
7013;SDS011;3547;50.774;12.918;2023-03-01T13:08:47;12.03;;;8.37;;
7013;SDS011;3547;50.774;12.918;2023-03-01T13:11:05;16.17;;;9.53;;
7013;SDS011;3547;50.774;12.918;2023-03-01T13:13:37;14.40;;;8.97;;
7013;SDS011;3547;50.774;12.918;2023-03-01T13:19:26;16.53;;;7.73;;
7013;SDS011;3547;50.774;12.918;2023-03-01T13:22:24;13.73;;;8.63;;
7013;SDS011;3547;50.774;12.918;2023-03-01T13:25:00;14.20;;;8.93;;
7013;SDS011;3547;50.774;12.918;2023-03-01T13:27:37;14.93;;;9.17;;
7013;SDS011;3547;50.774;12.918;2023-03-01T13:30:03;15.43;;;9.77;;
7013;SDS011;3547;50.774;12.918;2023-03-01T13:32:31;14.17;;;9.30;;
7013;SDS011;3547;50.774;12.918;2023-03-01T13:35:03;15.07;;;9.87;;
7013;SDS011;3547;50.774;12.918;2023-03-01T13:37:51;17.33;;;9.20;;
7013;SDS011;3547;50.774;12.918;2023-03-01T13:42:50;15.37;;;9.13;;
7013;SDS011;3547;50.774;12.918;2023-03-01T13:47:47;15.80;;;10.30;;
7013;SDS011;3547;50.774;12.918;2023-03-01T13:50:19;15.40;;;10.60;;
7013;SDS011;3547;50.774;12.918;2023-03-01T13:52:50;14.97;;;10.27;;
7013;SDS011;3547;50.774;12.918;2023-03-01T13:55:47;14.67;;;9.43;;
7013;SDS011;3547;50.774;12.918;2023-03-01T14:00:57;13.63;;;9.53;;
7013;SDS011;3547;50.774;12.918;2023-03-01T14:03:32;14.23;;;9.53;;
7013;SDS011;3547;50.774;12.918;2023-03-01T14:06:06;16.00;;;10.17;;
7013;SDS011;3547;50.774;12.918;2023-03-01T14:08:35;14.03;;;8.93;;
7013;SDS011;3547;50.774;12.918;2023-03-01T14:16:39;14.70;;;8.93;;
7013;SDS011;3547;50.774;12.918;2023-03-01T14:21:42;12.33;;;8.60;;
7013;SDS011;3547;50.774;12.918;2023-03-01T14:24:18;15.13;;;8.60;;
7013;SDS011;3547;50.774;12.918;2023-03-01T14:26:47;12.90;;;7.93;;
7013;SDS011;3547;50.774;12.918;2023-03-01T14:32:17;12.27;;;7.77;;
7013;SDS011;3547;50.774;12.918;2023-03-01T14:34:49;13.87;;;9.30;;
7013;SDS011;3547;50.774;12.918;2023-03-01T14:39:48;14.87;;;8.83;;
7013;SDS011;3547;50.774;12.918;2023-03-01T14:42:15;15.73;;;8.87;;
7013;SDS011;3547;50.774;12.918;2023-03-01T14:44:42;13.03;;;8.60;;
7013;SDS011;3547;50.774;12.918;2023-03-01T14:47:12;11.73;;;8.37;;
7013;SDS011;3547;50.774;12.918;2023-03-01T14:49:51;14.07;;;8.50;;
7013;SDS011;3547;50.774;12.918;2023-03-01T14:52:59;13.87;;;9.33;;
7013;SDS011;3547;50.774;12.918;2023-03-01T14:55:30;15.30;;;9.03;;
7013;SDS011;3547;50.774;12.918;2023-03-01T14:58:09;13.40;;;9.23;;
7013;SDS011;3547;50.774;12.918;2023-03-01T15:00:39;11.67;;;8.23;;
7013;SDS011;3547;50.774;12.918;2023-03-01T15:03:17;13.60;;;8.93;;
7013;SDS011;3547;50.774;12.918;2023-03-01T15:06:06;14.13;;;8.73;;
7013;SDS011;3547;50.774;12.918;2023-03-01T15:08:33;13.03;;;8.50;;
7013;SDS011;3547;50.774;12.918;2023-03-01T15:13:29;13.13;;;8.70;;
7013;SDS011;3547;50.774;12.918;2023-03-01T15:16:01;15.20;;;8.63;;
7013;SDS011;3547;50.774;12.918;2023-03-01T15:18:28;11.83;;;7.90;;
7013;SDS011;3547;50.774;12.918;2023-03-01T15:20:55;14.63;;;8.47;;
7013;SDS011;3547;50.774;12.918;2023-03-01T15:23:30;14.77;;;8.23;;
7013;SDS011;3547;50.774;12.918;2023-03-01T15:25:57;14.87;;;8.30;;
7013;SDS011;3547;50.774;12.918;2023-03-01T15:28:27;13.07;;;8.03;;
7013;SDS011;3547;50.774;12.918;2023-03-01T15:30:58;14.13;;;8.10;;
7013;SDS011;3547;50.774;12.918;2023-03-01T15:33:37;12.17;;;7.63;;
7013;SDS011;3547;50.774;12.918;2023-03-01T15:36:30;11.07;;;7.90;;
7013;SDS011;3547;50.774;12.918;2023-03-01T15:38:56;12.77;;;8.10;;
7013;SDS011;3547;50.774;12.918;2023-03-01T15:41:24;11.33;;;7.57;;
7013;SDS011;3547;50.774;12.918;2023-03-01T15:44:25;14.77;;;8.37;;
7013;SDS011;3547;50.774;12.918;2023-03-01T15:46:51;13.10;;;7.40;;
7013;SDS011;3547;50.774;12.918;2023-03-01T15:49:39;10.33;;;7.10;;
7013;SDS011;3547;50.774;12.918;2023-03-01T15:52:06;12.70;;;7.53;;
7013;SDS011;3547;50.774;12.918;2023-03-01T15:54:38;10.07;;;7.47;;
7013;SDS011;3547;50.774;12.918;2023-03-01T15:57:10;11.93;;;7.53;;
7013;SDS011;3547;50.774;12.918;2023-03-01T15:59:40;10.77;;;7.10;;
7013;SDS011;3547;50.774;12.918;2023-03-01T16:02:10;12.73;;;8.73;;
7013;SDS011;3547;50.774;12.918;2023-03-01T16:04:38;12.70;;;7.87;;
7013;SDS011;3547;50.774;12.918;2023-03-01T16:07:05;12.53;;;7.83;;
7013;SDS011;3547;50.774;12.918;2023-03-01T16:09:31;10.80;;;6.47;;
7013;SDS011;3547;50.774;12.918;2023-03-01T16:11:57;11.43;;;7.63;;
7013;SDS011;3547;50.774;12.918;2023-03-01T16:14:24;10.80;;;7.13;;
7013;SDS011;3547;50.774;12.918;2023-03-01T16:16:50;13.60;;;7.73;;
7013;SDS011;3547;50.774;12.918;2023-03-01T16:19:16;13.50;;;6.93;;
7013;SDS011;3547;50.774;12.918;2023-03-01T16:21:42;12.43;;;8.03;;
7013;SDS011;3547;50.774;12.918;2023-03-01T16:24:15;13.27;;;7.23;;
7013;SDS011;3547;50.774;12.918;2023-03-01T16:26:41;11.53;;;7.37;;
7013;SDS011;3547;50.774;12.918;2023-03-01T16:29:07;10.40;;;7.27;;
7013;SDS011;3547;50.774;12.918;2023-03-01T16:31:33;11.53;;;7.80;;
7013;SDS011;3547;50.774;12.918;2023-03-01T16:33:59;11.73;;;7.67;;
7013;SDS011;3547;50.774;12.918;2023-03-01T16:36:26;13.33;;;7.30;;
7013;SDS011;3547;50.774;12.918;2023-03-01T16:38:57;11.30;;;6.27;;
7013;SDS011;3547;50.774;12.918;2023-03-01T16:41:24;11.37;;;6.50;;
7013;SDS011;3547;50.774;12.918;2023-03-01T16:43:51;10.50;;;6.93;;
7013;SDS011;3547;50.774;12.918;2023-03-01T16:46:21;10.60;;;6.97;;
7013;SDS011;3547;50.774;12.918;2023-03-01T16:48:49;11.63;;;6.97;;
7013;SDS011;3547;50.774;12.918;2023-03-01T16:51:15;10.53;;;6.17;;
7013;SDS011;3547;50.774;12.918;2023-03-01T16:53:41;10.47;;;7.23;;
7013;SDS011;3547;50.774;12.918;2023-03-01T16:56:08;13.03;;;7.97;;
7013;SDS011;3547;50.774;12.918;2023-03-01T16:58:36;18.40;;;8.13;;
7013;SDS011;3547;50.774;12.918;2023-03-01T17:01:08;12.60;;;7.47;;
7013;SDS011;3547;50.774;12.918;2023-03-01T17:03:36;12.83;;;8.00;;
7013;SDS011;3547;50.774;12.918;2023-03-01T17:06:10;12.93;;;8.37;;
7013;SDS011;3547;50.774;12.918;2023-03-01T17:08:41;15.20;;;8.73;;
7013;SDS011;3547;50.774;12.918;2023-03-01T17:11:09;17.13;;;7.83;;
7013;SDS011;3547;50.774;12.918;2023-03-01T17:13:37;15.43;;;8.63;;
7013;SDS011;3547;50.774;12.918;2023-03-01T17:16:08;11.33;;;7.63;;
7013;SDS011;3547;50.774;12.918;2023-03-01T17:18:36;14.57;;;8.50;;
7013;SDS011;3547;50.774;12.918;2023-03-01T17:21:03;15.83;;;8.77;;
7013;SDS011;3547;50.774;12.918;2023-03-01T17:23:30;14.00;;;8.37;;
7013;SDS011;3547;50.774;12.918;2023-03-01T17:25:58;17.23;;;9.03;;